Time;durP1;ratioP1;P1;durP2;ratioP2;P2;SDS_P1;SDS_P2;PMS_P1;PMS_P2;Temp;Humidity;BMP_temperature;BMP_pressure;BME280_temperature;BME280_humidity;BME280_pressure;Samples;Min_cycle;Max_cycle;Signal;HPM_P1;HPM_P2
2023/05/28 00:01:48;;;;;;;14.00;7.70;;;;;;;8.98;43.77;101652.02;106248;1289;72458;-86
2023/05/28 00:04:35;;;;;;;12.20;6.70;;;;;;;8.98;43.81;101649.77;106232;1289;67189;-86
2023/05/28 00:07:21;;;;;;;19.80;6.50;;;;;;;8.94;43.96;101644.41;106130;1290;71433;-86
2023/05/28 00:10:07;;;;;;;11.20;5.20;;;;;;;8.89;44.06;101644.38;106155;1289;59040;-86
2023/05/28 00:12:53;;;;;;;13.60;6.40;;;;;;;8.85;44.13;101642.46;106276;1289;58982;-86
2023/05/28 00:15:39;;;;;;;10.30;5.20;;;;;;;8.80;44.20;101642.27;106169;1289;73883;-86
2023/05/28 00:18:28;;;;;;;7.30;4.50;;;;;;;8.74;44.37;101638.62;106233;1288;68576;-86
2023/05/28 00:21:14;;;;;;;13.10;4.60;;;;;;;8.72;44.41;101633.96;106004;1291;71249;-86
2023/05/28 00:24:00;;;;;;;14.70;5.60;;;;;;;8.68;44.41;101632.55;106241;1289;59046;-86
2023/05/28 00:26:46;;;;;;;10.40;5.50;;;;;;;8.68;44.51;101632.20;106275;1289;59043;-86
2023/05/28 00:29:32;;;;;;;8.70;5.40;;;;;;;8.65;44.55;101633.22;106137;1289;73455;-86
2023/05/28 00:32:18;;;;;;;12.20;5.70;;;;;;;8.61;44.61;101636.11;106011;1290;164346;-86
2023/05/28 00:35:05;;;;;;;15.00;6.30;;;;;;;8.55;44.73;101640.01;106009;1290;71920;-86
2023/05/28 00:37:52;;;;;;;8.90;4.70;;;;;;;8.51;44.66;101639.11;106187;1289;58900;-86
2023/05/28 00:40:43;;;;;;;12.00;5.60;;;;;;;8.45;44.81;101639.58;106161;1291;58956;-86
2023/05/28 00:43:29;;;;;;;13.20;4.90;;;;;;;8.41;44.94;101639.19;106261;1289;73133;-86
2023/05/28 00:46:18;;;;;;;8.00;4.60;;;;;;;8.35;44.96;101638.95;106241;1289;69454;-86
2023/05/28 00:49:05;;;;;;;9.60;5.30;;;;;;;8.31;45.04;101636.51;98590;1291;5003231;-86
2023/05/28 00:51:51;;;;;;;11.70;4.70;;;;;;;8.27;44.98;101635.80;106098;1291;58991;-86
2023/05/28 00:54:37;;;;;;;8.40;5.00;;;;;;;8.24;45.04;101630.94;106195;1289;59189;-86
2023/05/28 00:57:24;;;;;;;8.60;4.20;;;;;;;8.19;45.08;101622.31;106255;1289;73864;-86
2023/05/28 01:00:11;;;;;;;8.10;4.20;;;;;;;8.16;45.16;101618.50;106134;1289;67864;-86
2023/05/28 01:02:57;;;;;;;12.20;5.20;;;;;;;8.11;45.21;101611.92;106321;1288;71452;-86
2023/05/28 01:05:43;;;;;;;9.40;5.10;;;;;;;8.06;45.32;101607.06;106153;1288;59119;-86
2023/05/28 01:08:29;;;;;;;13.00;5.20;;;;;;;8.02;45.44;101607.53;106172;1289;59026;-86
2023/05/28 01:11:18;;;;;;;8.10;4.50;;;;;;;7.96;45.41;101606.27;106236;1289;74362;-86
2023/05/28 01:14:05;;;;;;;11.90;4.90;;;;;;;7.91;45.55;101608.63;106120;1289;67374;-86
2023/05/28 01:16:51;;;;;;;7.60;4.70;;;;;;;7.89;45.69;101603.61;106190;1289;72848;-86
2023/05/28 01:19:37;;;;;;;12.20;4.80;;;;;;;7.87;45.73;101603.95;106264;1289;59112;-87
2023/05/28 01:22:28;;;;;;;9.80;4.80;;;;;;;7.82;45.73;101596.67;106133;1289;59104;-86
2023/05/28 01:25:15;;;;;;;7.40;4.50;;;;;;;7.78;45.85;101597.35;106144;1289;74218;-85
2023/05/28 01:28:01;;;;;;;8.10;4.40;;;;;;;7.76;45.89;101602.12;106095;1289;67995;-86
2023/05/28 01:30:47;;;;;;;8.10;4.60;;;;;;;7.73;45.97;101603.29;106251;1289;71288;-86
2023/05/28 01:33:34;;;;;;;8.40;4.30;;;;;;;7.72;46.01;101604.83;106223;1289;59446;-85
2023/05/28 01:36:28;;;;;;;11.30;5.30;;;;;;;7.71;46.10;101605.33;106210;1289;59277;-85
2023/05/28 01:39:19;;;;;;;11.00;4.60;;;;;;;7.68;46.20;101607.52;106229;1289;73513;-86
2023/05/28 01:42:07;;;;;;;7.90;5.00;;;;;;;7.64;46.27;101604.56;106204;1289;67742;-85
2023/05/28 01:44:54;;;;;;;8.90;4.40;;;;;;;7.62;46.23;101607.63;106223;1288;70383;-85
2023/05/28 01:47:41;;;;;;;11.50;4.80;;;;;;;7.59;46.24;101611.36;106138;1289;59075;-86
2023/05/28 01:50:28;;;;;;;9.10;4.50;;;;;;;7.54;46.35;101609.75;106070;1290;60406;-86
2023/05/28 01:53:14;;;;;;;13.10;4.00;;;;;;;7.49;46.40;101605.06;106218;1289;75397;-86
2023/05/28 01:56:01;;;;;;;7.00;4.30;;;;;;;7.44;46.49;101608.26;106110;1291;67162;-86
2023/05/28 01:58:47;;;;;;;8.40;4.40;;;;;;;7.36;46.49;101597.67;106199;1289;71524;-85
2023/05/28 02:01:35;;;;;;;9.70;4.40;;;;;;;7.35;46.63;101597.68;106081;1290;59206;-86
2023/05/28 02:04:21;;;;;;;9.20;4.30;;;;;;;7.32;46.66;101591.63;106212;1288;59157;-85
2023/05/28 02:07:07;;;;;;;9.80;4.10;;;;;;;7.28;46.79;101586.61;106164;1290;73360;-86
2023/05/28 02:09:53;;;;;;;10.20;4.20;;;;;;;7.25;46.77;101582.15;102087;1289;5181063;-86
2023/05/28 02:12:39;;;;;;;8.30;4.50;;;;;;;7.25;46.82;101580.77;106187;1289;72439;-86
2023/05/28 02:15:26;;;;;;;8.00;4.60;;;;;;;7.24;46.97;101580.41;106224;1289;58960;-86
2023/05/28 02:18:12;;;;;;;7.40;4.30;;;;;;;7.22;47.00;101582.61;106164;1289;59061;-86
2023/05/28 02:20:58;;;;;;;9.10;3.80;;;;;;;7.20;46.93;101585.85;106128;1288;73390;-86
2023/05/28 02:23:46;;;;;;;8.50;3.80;;;;;;;7.19;47.05;101588.91;106190;1289;67411;-86
2023/05/28 02:26:32;;;;;;;10.60;3.60;;;;;;;7.16;47.10;101590.08;106197;1289;71351;-85
2023/05/28 02:29:18;;;;;;;13.90;4.40;;;;;;;7.14;47.13;101595.71;106169;1289;59157;-85
2023/05/28 02:32:05;;;;;;;8.00;4.00;;;;;;;7.12;47.22;101599.11;106138;1289;58964;-85
2023/05/28 02:34:54;;;;;;;8.90;4.50;;;;;;;7.06;47.17;101600.39;106203;1291;73176;-85
2023/05/28 02:37:40;;;;;;;6.70;3.70;;;;;;;7.01;47.21;101599.12;106171;1288;67498;-85
2023/05/28 02:40:26;;;;;;;4.00;3.50;;;;;;;6.97;47.31;101593.91;106121;1289;71407;-85
2023/05/28 02:43:12;;;;;;;7.40;3.90;;;;;;;6.97;47.32;101595.97;106249;1289;59270;-85
2023/05/28 02:45:58;;;;;;;9.30;3.60;;;;;;;6.93;47.34;101591.30;106255;1292;59254;-85
2023/05/28 02:48:45;;;;;;;6.90;3.60;;;;;;;6.87;47.37;101594.45;106221;1288;74231;-85
2023/05/28 02:51:31;;;;;;;6.90;3.60;;;;;;;6.84;47.46;101596.30;106124;1289;68539;-86
2023/05/28 02:54:17;;;;;;;8.80;3.60;;;;;;;6.75;47.51;101597.89;106115;1290;71387;-85
2023/05/28 02:57:03;;;;;;;6.00;3.80;;;;;;;6.69;47.67;101599.17;106164;1291;58767;-86
2023/05/28 02:59:49;;;;;;;9.40;3.20;;;;;;;6.65;47.73;101599.64;106068;1289;59513;-86
2023/05/28 03:02:35;;;;;;;4.30;3.40;;;;;;;6.60;47.86;101597.33;106140;1290;73880;-86
2023/05/28 03:05:22;;;;;;;4.90;3.60;;;;;;;6.65;47.80;101592.94;106192;1289;68544;-85
2023/05/28 03:08:08;;;;;;;4.30;3.30;;;;;;;6.67;47.88;101594.52;106170;1289;72104;-85
2023/05/28 03:10:54;;;;;;;11.20;6.10;;;;;;;6.67;47.96;101598.12;106183;1289;59652;-86
2023/05/28 03:13:40;;;;;;;11.60;7.30;;;;;;;6.67;48.16;101597.27;106113;1289;59219;-86
2023/05/28 03:16:26;;;;;;;28.20;10.80;;;;;;;6.66;48.19;101595.02;106189;1290;73925;-86
2023/05/28 03:19:12;;;;;;;17.10;10.10;;;;;;;6.62;48.12;101595.48;106147;1289;68382;-86
2023/05/28 03:21:58;;;;;;;20.40;9.70;;;;;;;6.62;48.24;101599.07;106176;1288;72383;-86
2023/05/28 03:24:44;;;;;;;21.40;9.00;;;;;;;6.61;48.37;101596.48;106171;1289;58998;-86
2023/05/28 03:27:30;;;;;;;20.00;10.60;;;;;;;6.62;48.37;101589.81;105890;1291;59092;-86
2023/05/28 03:30:16;;;;;;;45.30;21.20;;;;;;;6.63;48.42;101593.77;106249;1289;72532;-86
2023/05/28 03:33:02;;;;;;;20.80;10.30;;;;;;;6.67;48.53;101597.42;106279;1289;67534;-86
2023/05/28 03:35:48;;;;;;;22.90;13.10;;;;;;;6.72;48.48;101594.95;106179;1289;72399;-86
2023/05/28 03:38:34;;;;;;;37.30;18.20;;;;;;;6.79;48.51;101596.39;106278;1289;59373;-86
2023/05/28 03:41:21;;;;;;;78.00;33.00;;;;;;;6.84;48.55;101590.81;106071;1291;59201;-86
2023/05/28 03:44:08;;;;;;;79.30;32.90;;;;;;;6.87;48.67;101588.64;106039;1289;72652;-86
2023/05/28 03:46:54;;;;;;;;;;;;;;;6.94;48.63;101593.35;106189;1288;67804;-85
2023/05/28 03:49:40;;;;;;;67.80;30.60;;;;;;;6.99;48.71;101593.79;106191;1289;71070;-85
2023/05/28 03:52:27;;;;;;;78.20;34.80;;;;;;;7.04;48.78;101593.50;106100;1289;59561;-86
2023/05/28 03:55:13;;;;;;;43.50;21.20;;;;;;;7.09;48.84;101593.23;106171;1289;59353;-86
2023/05/28 03:57:59;;;;;;;36.40;18.50;;;;;;;7.13;48.96;101591.06;105937;1291;73194;-86
2023/05/28 04:00:45;;;;;;;30.30;16.60;;;;;;;7.15;49.02;101595.21;106002;1290;67138;-85
2023/05/28 04:03:32;;;;;;;30.20;16.10;;;;;;;7.21;49.14;101589.80;106227;1289;72449;-86
2023/05/28 04:06:18;;;;;;;26.50;15.10;;;;;;;7.34;49.22;101591.83;106080;1289;58973;-86
2023/05/28 04:09:04;;;;;;;36.50;17.50;;;;;;;7.51;49.30;101594.45;106217;1289;58987;-86
2023/05/28 04:21:09;;;;;;;;;;;;;;;;;;;;;
2023/05/28 04:24:51;;;;;;;;;;;;;;;;;;;;;
2023/05/28 04:56:05;;;;;;;;;;;;;;;;;;;;;
2023/05/28 05:04:02;;;;;;;;;;;;;;;;;;;;;
2023/05/28 05:15:52;;;;;;;8.70;4.40;;;;;;;12.44;50.43;101572.06;103276;1321;67512;-86
2023/05/28 05:26:51;;;;;;;11.30;5.00;;;;;;;15.67;49.33;101561.05;103509;1320;59304;-87
2023/05/28 05:29:37;;;;;;;9.30;5.20;;;;;;;16.33;49.11;101561.55;103844;1314;73515;-85
2023/05/28 05:32:23;;;;;;;13.30;4.90;;;;;;;16.88;48.85;101564.86;104039;1314;68642;-85
2023/05/28 05:58:24;;;;;;;3.90;2.90;;;;;;;21.69;46.74;101568.48;102849;1329;59086;-86
2023/05/28 06:01:10;;;;;;;4.90;2.50;;;;;;;22.05;46.24;101564.77;102889;1333;60331;-86
2023/05/28 06:03:57;;;;;;;5.60;3.70;;;;;;;22.39;46.31;101565.74;103078;1325;74677;-87
2023/05/28 06:06:44;;;;;;;17.80;15.40;;;;;;;22.71;45.89;101566.04;103057;1326;67758;-87
2023/05/28 06:09:31;;;;;;;6.30;4.80;;;;;;;22.85;45.49;101562.90;102995;1326;70235;-87
2023/05/28 06:12:17;;;;;;;8.10;3.10;;;;;;;23.05;45.41;101567.09;103123;1323;59112;-87
2023/05/28 06:15:05;;;;;;;7.70;3.20;;;;;;;23.36;44.99;101567.88;103695;1311;59301;-87
2023/05/28 06:17:51;;;;;;;4.40;2.70;;;;;;;23.88;44.82;101568.83;104083;1314;73267;-87
2023/05/28 06:20:38;;;;;;;;;;;;;;;24.48;44.20;101566.98;104170;1312;69200;-87
2023/05/28 06:23:24;;;;;;;;;;;;;;;25.05;43.98;101568.09;104830;1305;72551;-87
2023/05/28 06:26:10;;;;;;;;;;;;;;;25.55;43.67;101569.39;104898;1305;59436;-87
2023/05/28 06:28:56;;;;;;;6.40;2.10;;;;;;;25.88;43.40;101570.44;105028;1306;58983;-87
2023/05/28 06:31:44;;;;;;;5.60;2.30;;;;;;;26.25;42.90;101572.05;105321;1300;75686;-87
2023/05/28 06:34:31;;;;;;;3.60;2.70;;;;;;;26.85;42.54;101569.00;105498;1302;67552;-85
2023/05/28 06:38:25;;;;;;;4.90;2.00;;;;;;;27.48;42.20;101566.85;106038;1289;71116;-85
2023/05/28 06:48:57;;;;;;;4.90;1.90;;;;;;;28.51;40.84;101562.05;105984;1292;73381;-85
2023/05/28 06:51:43;;;;;;;;;;;;;;;28.80;40.28;101563.88;106022;1292;68499;-86
2023/05/28 06:54:32;;;;;;;4.20;2.00;;;;;;;29.37;39.72;101570.17;105815;1292;72516;-86
2023/05/28 06:57:18;;;;;;;2.50;1.90;;;;;;;29.93;39.05;101570.17;105658;1301;59223;-86
2023/05/28 07:00:13;;;;;;;3.60;2.00;;;;;;;30.62;38.31;101564.03;105911;1292;60192;-86
2023/05/28 07:02:59;;;;;;;3.80;1.60;;;;;;;31.44;37.81;101561.49;105778;1292;74259;-86
2023/05/28 07:05:45;;;;;;;2.30;1.70;;;;;;;32.20;37.00;101562.22;106058;1289;69138;-86
2023/05/28 07:08:31;;;;;;;10.40;2.10;;;;;;;32.97;36.92;101564.20;106108;1289;72682;-86
2023/05/28 07:11:17;;;;;;;2.80;1.70;;;;;;;33.52;36.07;101562.08;106164;1289;58856;-86
2023/05/28 07:14:03;;;;;;;3.20;2.00;;;;;;;33.91;35.65;101559.81;106183;1289;59256;-86
2023/05/28 07:16:48;;;;;;;3.10;2.00;;;;;;;33.98;35.50;101554.81;106146;1292;75426;-86
2023/05/28 07:19:35;;;;;;;2.40;2.10;;;;;;;33.85;35.41;101565.42;106191;1289;69519;-86
2023/05/28 07:22:20;;;;;;;;;;;;;;;34.43;34.52;101559.69;106096;1289;71143;-86
2023/05/28 07:25:07;;;;;;;5.60;1.80;;;;;;;34.11;34.05;101562.58;106096;1292;59159;-86
2023/05/28 07:27:53;;;;;;;4.30;2.00;;;;;;;33.26;33.89;101559.29;106125;1289;60160;-86
2023/05/28 07:30:40;;;;;;;;;;;;;;;33.36;33.54;101561.48;106082;1289;73289;-86
2023/05/28 07:33:26;;;;;;;5.00;2.10;;;;;;;33.47;32.83;101558.78;106251;1289;67854;-86
2023/05/28 07:36:12;;;;;;;;;;;;;;;32.97;32.47;101551.12;106123;1289;71443;-86
2023/05/28 07:38:58;;;;;;;4.10;2.00;;;;;;;32.60;32.36;101552.23;106084;1289;59071;-86
2023/05/28 07:41:44;;;;;;;;;;;;;;;32.86;31.71;101556.85;106148;1289;60382;-86
2023/05/28 07:44:30;;;;;;;4.80;1.80;;;;;;;34.23;31.20;101555.88;106155;1289;74385;-86
2023/05/28 07:47:16;;;;;;;;;;;;;;;35.81;30.21;101559.61;106062;1294;68199;-86
2023/05/28 07:50:04;;;;;;;2.80;2.00;;;;;;;37.23;29.75;101564.52;106099;1289;71359;-86
2023/05/28 07:52:50;;;;;;;3.00;1.90;;;;;;;38.30;29.07;101565.98;106074;1289;59202;-86
2023/05/28 07:55:36;;;;;;;4.70;1.80;;;;;;;39.00;28.55;101562.39;106043;1290;60099;-86
2023/05/28 07:58:22;;;;;;;6.60;2.60;;;;;;;39.93;28.22;101552.38;106199;1289;73969;-87
2023/05/28 08:01:09;;;;;;;4.20;1.90;;;;;;;40.79;27.60;101549.02;106022;1289;68612;-87
2023/05/28 08:03:55;;;;;;;3.60;2.30;;;;;;;41.40;26.80;101554.77;106117;1289;73040;-87
2023/05/28 08:06:41;;;;;;;4.90;2.20;;;;;;;41.93;26.41;101550.77;106077;1293;59476;-87
2023/05/28 08:09:27;;;;;;;3.50;2.10;;;;;;;42.58;25.67;101546.55;106129;1289;59283;-87
2023/05/28 08:12:13;;;;;;;2.60;2.20;;;;;;;43.04;25.25;101542.07;105963;1290;75462;-87
2023/05/28 08:14:59;;;;;;;2.20;2.10;;;;;;;43.63;24.53;101538.35;106010;1289;67350;-87
2023/05/28 08:17:45;;;;;;;3.40;2.90;;;;;;;43.93;24.05;101539.63;106097;1294;72468;-87
2023/05/28 08:20:31;;;;;;;4.00;2.70;;;;;;;44.18;23.55;101535.22;106105;1289;59022;-87
2023/05/28 08:23:17;;;;;;;4.00;3.10;;;;;;;44.74;22.96;101529.90;106063;1289;59766;-87
2023/05/28 08:26:03;;;;;;;4.00;3.70;;;;;;;44.89;22.33;101525.61;106187;1289;74872;-87
2023/05/28 08:28:49;;;;;;;5.70;4.60;;;;;;;44.99;21.85;101522.13;106079;1289;67337;-87
2023/05/28 08:31:35;;;;;;;4.20;3.50;;;;;;;45.22;21.14;101516.44;106019;1289;73179;-87
2023/05/28 08:34:22;;;;;;;4.00;3.60;;;;;;;45.59;20.94;101516.31;106120;1289;59054;-87
2023/05/28 08:37:08;;;;;;;3.40;3.20;;;;;;;45.95;20.24;101511.77;106201;1289;59007;-87
2023/05/28 08:39:54;;;;;;;3.90;3.70;;;;;;;46.07;19.69;101509.97;106009;1289;64640;-87
2023/05/28 08:42:40;;;;;;;4.60;3.70;;;;;;;46.33;19.13;101503.60;106207;1289;67387;-87
2023/05/28 08:45:26;;;;;;;5.00;4.70;;;;;;;46.61;18.75;101507.33;106106;1289;62588;-87
2023/05/28 08:48:14;;;;;;;4.00;3.80;;;;;;;46.31;18.28;101500.13;106181;1289;59284;-87
2023/05/28 08:51:01;;;;;;;4.30;3.90;;;;;;;45.64;17.53;101496.38;106122;1289;59041;-87
2023/05/28 08:53:48;;;;;;;5.00;4.20;;;;;;;44.05;17.15;101488.78;106169;1293;74830;-87
2023/05/28 08:56:35;;;;;;;5.30;2.70;;;;;;;41.57;17.14;101481.23;106204;1289;67630;-87
2023/05/28 08:59:22;;;;;;;2.80;1.80;;;;;;;38.79;16.86;101474.95;106107;1294;72628;-86
2023/05/28 09:02:11;;;;;;;2.30;1.60;;;;;;;36.59;16.78;101467.22;106177;1289;59054;-86
2023/05/28 09:04:57;;;;;;;4.70;1.60;;;;;;;34.84;16.69;101459.06;106123;1291;61484;-85
2023/05/28 09:07:44;;;;;;;3.70;1.50;;;;;;;33.37;16.69;101456.98;106151;1291;73357;-85
2023/05/28 09:10:30;;;;;;;2.30;1.60;;;;;;;32.02;16.54;101450.39;106253;1289;69359;-85
2023/05/28 09:13:20;;;;;;;3.30;1.30;;;;;;;30.77;16.61;101450.95;106137;1289;72128;-85
2023/05/28 09:16:06;;;;;;;6.80;1.80;;;;;;;29.62;16.73;101449.04;106222;1289;58880;-85
2023/05/28 09:19:02;;;;;;;;;;;;;;;28.74;16.66;101452.33;106278;1293;61199;-85
2023/05/28 09:21:52;;;;;;;6.10;1.50;;;;;;;27.90;16.86;101452.65;106124;1289;73303;-84
2023/05/28 09:24:39;;;;;;;2.00;1.30;;;;;;;27.20;16.98;101455.23;106069;1290;67223;-85
2023/05/28 09:27:25;;;;;;;;;;;;;;;26.61;16.94;101450.36;106148;1295;71537;-85
2023/05/28 09:30:12;;;;;;;5.80;1.40;;;;;;;25.96;17.10;101443.00;106225;1289;59403;-85
2023/05/28 09:33:03;;;;;;;7.40;1.40;;;;;;;25.46;17.34;101444.56;106264;1294;60257;-85
2023/05/28 09:35:59;;;;;;;9.40;1.60;;;;;;;25.18;17.44;101444.11;106078;1291;74554;-85
2023/05/28 09:38:45;;;;;;;4.90;1.50;;;;;;;24.88;17.53;101443.70;106101;1295;67364;-85
2023/05/28 09:49:03;;;;;;;8.10;1.50;;;;;;;23.65;18.04;101433.55;106171;1289;60574;-85
2023/05/28 13:21:04;;;;;;;;;;;;;;;;;;;;;
2023/05/28 13:24:50;;;;;;;6.90;1.30;;;;;;;21.73;24.86;101296.77;105439;1299;73355;-84
2023/05/28 20:44:35;;;;;;;12.70;8.10;;;;;;;14.39;36.57;101237.25;91627;1292;59658;-85
2023/05/28 20:47:21;;;;;;;13.70;7.20;;;;;;;14.29;36.59;101238.49;105533;1296;58930;-85
2023/05/28 20:50:07;;;;;;;17.80;6.80;;;;;;;14.20;36.68;101236.95;105599;1297;74688;-85
2023/05/28 20:52:53;;;;;;;18.90;5.90;;;;;;;14.09;36.87;101235.45;105432;1297;68470;-85
2023/05/28 20:55:39;;;;;;;17.40;6.40;;;;;;;14.02;37.03;101234.40;105617;1297;72452;-85
2023/05/28 20:58:25;;;;;;;14.70;6.00;;;;;;;13.96;37.16;101235.04;105579;1297;59295;-85
2023/05/28 21:01:11;;;;;;;13.90;6.00;;;;;;;13.90;37.24;101234.98;105610;1297;60700;-85
2023/05/28 21:03:57;;;;;;;12.50;5.60;;;;;;;13.85;37.34;101239.08;105624;1296;73396;-85
2023/05/28 21:06:43;;;;;;;18.50;5.90;;;;;;;13.78;37.44;101238.67;105597;1296;67258;-85
2023/05/28 21:09:30;;;;;;;10.80;5.20;;;;;;;13.72;37.60;101239.49;105629;1296;70408;-85
2023/05/28 21:12:16;;;;;;;12.30;4.60;;;;;;;13.65;37.70;101241.53;105605;1296;58875;-85
2023/05/28 21:15:02;;;;;;;11.30;4.40;;;;;;;13.60;37.82;101245.26;105459;1297;59173;-85
2023/05/28 21:17:48;;;;;;;10.00;4.50;;;;;;;13.55;37.86;101247.07;105544;1297;74136;-85
2023/05/28 21:20:34;;;;;;;13.00;5.40;;;;;;;13.53;37.94;101252.15;105614;1296;68475;-85
2023/05/28 21:23:20;;;;;;;9.90;4.70;;;;;;;13.45;38.14;101254.91;105620;1296;70540;-85
2023/05/28 21:26:06;;;;;;;8.20;4.80;;;;;;;13.37;38.34;101255.92;105459;1297;59387;-85
2023/05/28 21:28:52;;;;;;;9.10;4.70;;;;;;;13.26;38.30;101255.23;105501;1297;59178;-85
2023/05/28 21:31:38;;;;;;;9.20;5.70;;;;;;;13.20;38.49;101252.39;105570;1297;73215;-85
2023/05/28 21:34:24;;;;;;;11.30;4.80;;;;;;;13.11;38.50;101251.81;105478;1298;67499;-85
2023/05/28 21:37:11;;;;;;;12.10;5.40;;;;;;;13.06;38.70;101249.13;105428;1300;72116;-85
2023/05/28 21:39:57;;;;;;;8.10;4.90;;;;;;;13.00;38.74;101250.96;105426;1299;58971;-85
2023/05/28 21:42:43;;;;;;;8.70;5.30;;;;;;;12.92;38.91;101253.02;105582;1301;58838;-84
2023/05/28 21:45:29;;;;;;;13.20;5.10;;;;;;;12.86;38.92;101261.41;105489;1300;73655;-85
2023/05/28 21:48:16;;;;;;;9.90;4.60;;;;;;;12.83;39.19;101264.21;105443;1297;67340;-85
2023/05/28 21:51:02;;;;;;;10.60;4.80;;;;;;;12.80;39.22;101265.48;105520;1297;71835;-86
2023/05/28 21:53:48;;;;;;;9.80;5.60;;;;;;;12.75;39.36;101268.48;105462;1297;59060;-85
2023/05/28 21:56:35;;;;;;;12.10;5.50;;;;;;;12.66;39.43;101259.45;105483;1297;60259;-85
2023/05/28 21:59:21;;;;;;;9.00;5.50;;;;;;;12.62;39.51;101261.92;105408;1300;74531;-85
2023/05/28 22:02:07;;;;;;;8.90;5.30;;;;;;;12.51;39.62;101256.89;105296;1297;67228;-85
2023/05/28 22:04:56;;;;;;;9.00;5.70;;;;;;;12.41;39.85;101258.10;105570;1299;73008;-85
2023/05/28 22:07:45;;;;;;;11.70;5.70;;;;;;;12.35;40.01;101260.42;105374;1300;60110;-85
2023/05/28 22:10:31;;;;;;;7.30;4.90;;;;;;;12.38;40.12;101257.96;105459;1298;60220;-85
2023/05/28 22:13:17;;;;;;;11.50;5.20;;;;;;;12.37;40.19;101261.26;105560;1297;73384;-85
2023/05/28 22:16:04;;;;;;;12.90;5.50;;;;;;;12.30;40.25;101261.34;105494;1299;67444;-85
2023/05/28 22:18:50;;;;;;;10.30;5.20;;;;;;;12.25;40.32;101258.63;105495;1297;71394;-85
2023/05/28 22:21:36;;;;;;;;;;;;;;;12.21;40.46;101255.75;105511;1297;58993;-85
2023/05/28 22:24:22;;;;;;;12.90;5.60;;;;;;;12.20;40.64;101259.56;105482;1299;59210;-85
2023/05/28 22:27:09;;;;;;;11.50;6.10;;;;;;;12.20;40.72;101269.25;105485;1297;73376;-85
2023/05/28 22:29:55;;;;;;;;;;;;;;;12.07;40.73;101262.66;105505;1297;67558;-85
2023/05/28 22:32:41;;;;;;;13.20;5.80;;;;;;;11.87;41.00;101259.80;105485;1299;73105;-85
2023/05/28 22:35:28;;;;;;;9.60;5.80;;;;;;;11.85;41.16;101261.21;105540;1298;59019;-85
2023/05/28 22:38:14;;;;;;;14.70;7.20;;;;;;;11.87;41.21;101261.36;105483;1299;59058;-85
2023/05/28 22:41:00;;;;;;;15.70;6.20;;;;;;;11.87;41.30;101265.16;105440;1297;74298;-85
2023/05/28 22:43:46;;;;;;;11.30;6.10;;;;;;;11.83;41.36;101263.14;105565;1297;67460;-85
2023/05/28 22:46:32;;;;;;;15.10;6.40;;;;;;;11.73;41.41;101264.75;105488;1297;71390;-85
2023/05/28 22:49:18;;;;;;;11.70;6.10;;;;;;;11.71;41.51;101262.54;105464;1299;59090;-86
2023/05/28 22:52:04;;;;;;;12.10;6.50;;;;;;;11.70;41.55;101264.79;105602;1297;59314;-85
2023/05/28 22:54:50;;;;;;;23.40;7.60;;;;;;;11.67;41.73;101264.30;105451;1297;73383;-85
2023/05/28 22:57:37;;;;;;;14.30;6.80;;;;;;;11.58;41.86;101266.98;105426;1297;67301;-86
2023/05/28 23:00:23;;;;;;;12.60;5.90;;;;;;;11.49;41.88;101261.88;105480;1297;73050;-85
2023/05/28 23:03:09;;;;;;;13.40;5.60;;;;;;;11.46;42.00;101261.56;105423;1297;58997;-85
2023/05/28 23:05:56;;;;;;;11.50;5.10;;;;;;;11.47;42.10;101263.27;105590;1297;58987;-85
2023/05/28 23:08:42;;;;;;;13.00;5.60;;;;;;;11.42;42.34;101261.96;105435;1298;75058;-85
2023/05/28 23:11:28;;;;;;;14.80;5.30;;;;;;;11.39;42.38;101262.00;105473;1297;67390;-85
2023/05/28 23:14:14;;;;;;;16.70;4.90;;;;;;;11.41;42.43;101262.51;105413;1300;72311;-85
2023/05/28 23:17:00;;;;;;;12.90;4.90;;;;;;;11.41;42.48;101265.09;105517;1298;59114;-85
2023/05/28 23:19:46;;;;;;;12.80;5.40;;;;;;;11.40;42.48;101269.59;105498;1297;60212;-85
2023/05/28 23:22:33;;;;;;;8.50;4.40;;;;;;;11.36;42.52;101270.31;105494;1299;73744;-85
2023/05/28 23:25:19;;;;;;;6.70;4.70;;;;;;;11.33;42.69;101268.09;105501;1297;67519;-85
2023/05/28 23:28:05;;;;;;;7.10;4.00;;;;;;;11.32;42.68;101270.00;105479;1303;71296;-85
2023/05/28 23:30:52;;;;;;;13.30;3.90;;;;;;;11.35;42.78;101269.80;105524;1297;58946;-85
2023/05/28 23:33:38;;;;;;;7.60;3.80;;;;;;;11.37;42.85;101267.02;105488;1297;59438;-85
2023/05/28 23:36:26;;;;;;;8.80;4.10;;;;;;;11.36;42.82;101267.20;105482;1297;75555;-85
2023/05/28 23:39:12;;;;;;;10.60;3.60;;;;;;;11.35;42.97;101268.26;105458;1297;67599;-85
2023/05/28 23:41:58;;;;;;;10.90;4.10;;;;;;;11.33;43.06;101263.27;105391;1297;71808;-85
2023/05/28 23:44:44;;;;;;;7.60;3.90;;;;;;;11.27;43.14;101257.10;105558;1297;59153;-85
2023/05/28 23:47:31;;;;;;;5.40;3.60;;;;;;;11.18;43.19;101253.55;105495;1297;59296;-86
2023/05/28 23:50:17;;;;;;;6.80;4.00;;;;;;;11.12;43.21;101252.55;105429;1297;73086;-85
2023/05/28 23:53:03;;;;;;;6.20;3.70;;;;;;;11.16;43.37;101249.95;105536;1297;67217;-85
2023/05/28 23:55:50;;;;;;;8.70;3.60;;;;;;;11.16;43.34;101248.21;105538;1297;71224;-85
2023/05/28 23:58:35;;;;;;;6.00;3.90;;;;;;;11.11;43.39;101243.26;105576;1297;59512;-85
